sensor_id;sensor_type;location;lat;lon;timestamp;P1;durP1;ratioP1;P2;durP2;ratioP2
25962;SDS011;13760;52.588;13.406;2023-06-04T00:00:35;4.60;;;3.53;;
25962;SDS011;13760;52.588;13.406;2023-06-04T00:03:01;5.63;;;3.45;;
25962;SDS011;13760;52.588;13.406;2023-06-04T00:05:26;6.72;;;4.03;;
25962;SDS011;13760;52.588;13.406;2023-06-04T00:07:52;7.80;;;3.70;;
25962;SDS011;13760;52.588;13.406;2023-06-04T00:10:18;6.38;;;3.80;;
25962;SDS011;13760;52.588;13.406;2023-06-04T00:12:43;9.07;;;3.95;;
25962;SDS011;13760;52.588;13.406;2023-06-04T00:15:09;6.10;;;3.67;;
25962;SDS011;13760;52.588;13.406;2023-06-04T00:17:35;5.97;;;4.15;;
25962;SDS011;13760;52.588;13.406;2023-06-04T00:20:00;6.43;;;3.55;;
25962;SDS011;13760;52.588;13.406;2023-06-04T00:22:26;5.82;;;3.88;;
25962;SDS011;13760;52.588;13.406;2023-06-04T00:24:52;6.45;;;3.33;;
25962;SDS011;13760;52.588;13.406;2023-06-04T00:27:17;10.48;;;4.00;;
25962;SDS011;13760;52.588;13.406;2023-06-04T00:29:43;7.30;;;4.28;;
25962;SDS011;13760;52.588;13.406;2023-06-04T00:32:08;7.55;;;3.55;;
25962;SDS011;13760;52.588;13.406;2023-06-04T00:34:34;6.03;;;3.67;;
25962;SDS011;13760;52.588;13.406;2023-06-04T00:37:00;8.40;;;3.72;;
25962;SDS011;13760;52.588;13.406;2023-06-04T00:39:26;4.85;;;3.50;;
25962;SDS011;13760;52.588;13.406;2023-06-04T00:41:52;5.10;;;3.35;;
25962;SDS011;13760;52.588;13.406;2023-06-04T00:44:17;5.65;;;3.65;;
25962;SDS011;13760;52.588;13.406;2023-06-04T00:46:43;6.05;;;3.50;;
25962;SDS011;13760;52.588;13.406;2023-06-04T00:49:10;4.82;;;3.47;;
25962;SDS011;13760;52.588;13.406;2023-06-04T00:51:37;8.82;;;3.53;;
25962;SDS011;13760;52.588;13.406;2023-06-04T00:54:02;7.45;;;3.17;;
25962;SDS011;13760;52.588;13.406;2023-06-04T00:56:37;4.10;;;3.10;;
25962;SDS011;13760;52.588;13.406;2023-06-04T00:59:04;6.05;;;3.25;;
25962;SDS011;13760;52.588;13.406;2023-06-04T01:01:37;5.50;;;3.17;;
25962;SDS011;13760;52.588;13.406;2023-06-04T01:04:12;3.78;;;2.80;;
25962;SDS011;13760;52.588;13.406;2023-06-04T01:06:43;6.13;;;3.08;;
25962;SDS011;13760;52.588;13.406;2023-06-04T01:09:09;5.68;;;3.40;;
25962;SDS011;13760;52.588;13.406;2023-06-04T01:11:36;4.70;;;3.00;;
25962;SDS011;13760;52.588;13.406;2023-06-04T01:14:03;4.28;;;2.83;;
25962;SDS011;13760;52.588;13.406;2023-06-04T01:16:35;4.38;;;2.78;;
25962;SDS011;13760;52.588;13.406;2023-06-04T01:19:11;5.93;;;3.20;;
25962;SDS011;13760;52.588;13.406;2023-06-04T01:21:49;6.35;;;2.95;;
25962;SDS011;13760;52.588;13.406;2023-06-04T01:24:18;4.75;;;2.78;;
25962;SDS011;13760;52.588;13.406;2023-06-04T01:26:47;7.03;;;3.10;;
25962;SDS011;13760;52.588;13.406;2023-06-04T01:29:13;4.53;;;2.83;;
25962;SDS011;13760;52.588;13.406;2023-06-04T01:31:38;3.45;;;2.97;;
25962;SDS011;13760;52.588;13.406;2023-06-04T01:34:07;3.83;;;2.88;;
25962;SDS011;13760;52.588;13.406;2023-06-04T01:36:32;6.25;;;2.97;;
25962;SDS011;13760;52.588;13.406;2023-06-04T01:38:58;5.47;;;3.00;;
25962;SDS011;13760;52.588;13.406;2023-06-04T01:41:25;5.05;;;3.00;;
25962;SDS011;13760;52.588;13.406;2023-06-04T01:43:51;6.30;;;3.50;;
25962;SDS011;13760;52.588;13.406;2023-06-04T01:46:16;6.53;;;3.15;;
25962;SDS011;13760;52.588;13.406;2023-06-04T01:48:42;5.80;;;2.88;;
25962;SDS011;13760;52.588;13.406;2023-06-04T01:51:07;7.78;;;3.55;;
25962;SDS011;13760;52.588;13.406;2023-06-04T01:53:33;6.55;;;2.95;;
25962;SDS011;13760;52.588;13.406;2023-06-04T01:55:58;9.40;;;3.83;;
25962;SDS011;13760;52.588;13.406;2023-06-04T01:58:24;5.57;;;2.88;;
25962;SDS011;13760;52.588;13.406;2023-06-04T02:00:55;4.95;;;3.13;;
25962;SDS011;13760;52.588;13.406;2023-06-04T02:03:24;6.88;;;2.90;;
25962;SDS011;13760;52.588;13.406;2023-06-04T02:05:51;6.65;;;3.00;;
25962;SDS011;13760;52.588;13.406;2023-06-04T02:08:16;5.45;;;3.13;;
25962;SDS011;13760;52.588;13.406;2023-06-04T02:10:44;6.55;;;3.08;;
25962;SDS011;13760;52.588;13.406;2023-06-04T02:13:11;6.53;;;3.20;;
25962;SDS011;13760;52.588;13.406;2023-06-04T02:15:37;4.75;;;3.00;;
25962;SDS011;13760;52.588;13.406;2023-06-04T02:18:12;6.43;;;2.97;;
25962;SDS011;13760;52.588;13.406;2023-06-04T02:20:41;6.35;;;3.38;;
25962;SDS011;13760;52.588;13.406;2023-06-04T02:23:08;4.95;;;3.30;;
25962;SDS011;13760;52.588;13.406;2023-06-04T02:25:34;5.93;;;2.83;;
25962;SDS011;13760;52.588;13.406;2023-06-04T02:27:59;5.63;;;2.90;;
25962;SDS011;13760;52.588;13.406;2023-06-04T02:30:25;4.00;;;2.80;;
25962;SDS011;13760;52.588;13.406;2023-06-04T02:32:51;5.65;;;2.90;;
25962;SDS011;13760;52.588;13.406;2023-06-04T02:35:16;6.95;;;2.90;;
25962;SDS011;13760;52.588;13.406;2023-06-04T02:37:43;4.70;;;3.15;;
25962;SDS011;13760;52.588;13.406;2023-06-04T02:40:09;7.47;;;3.08;;
25962;SDS011;13760;52.588;13.406;2023-06-04T02:42:35;5.57;;;3.42;;
25962;SDS011;13760;52.588;13.406;2023-06-04T02:45:00;6.05;;;2.92;;
25962;SDS011;13760;52.588;13.406;2023-06-04T02:47:26;9.07;;;2.80;;
25962;SDS011;13760;52.588;13.406;2023-06-04T02:49:52;4.25;;;3.05;;
25962;SDS011;13760;52.588;13.406;2023-06-04T02:52:17;4.40;;;2.67;;
25962;SDS011;13760;52.588;13.406;2023-06-04T02:54:43;6.95;;;3.13;;
25962;SDS011;13760;52.588;13.406;2023-06-04T02:57:08;13.15;;;3.55;;
25962;SDS011;13760;52.588;13.406;2023-06-04T02:59:34;6.18;;;3.47;;
25962;SDS011;13760;52.588;13.406;2023-06-04T03:02:01;6.30;;;2.97;;
25962;SDS011;13760;52.588;13.406;2023-06-04T03:04:27;6.75;;;2.80;;
25962;SDS011;13760;52.588;13.406;2023-06-04T03:06:59;9.18;;;3.42;;
25962;SDS011;13760;52.588;13.406;2023-06-04T03:09:27;6.68;;;2.92;;
25962;SDS011;13760;52.588;13.406;2023-06-04T03:11:53;7.38;;;3.28;;
25962;SDS011;13760;52.588;13.406;2023-06-04T03:14:18;4.95;;;2.95;;
25962;SDS011;13760;52.588;13.406;2023-06-04T03:16:44;8.25;;;2.75;;
25962;SDS011;13760;52.588;13.406;2023-06-04T03:19:10;6.40;;;2.97;;
25962;SDS011;13760;52.588;13.406;2023-06-04T03:21:36;6.97;;;3.00;;
25962;SDS011;13760;52.588;13.406;2023-06-04T03:24:05;7.35;;;2.63;;
25962;SDS011;13760;52.588;13.406;2023-06-04T03:26:31;5.10;;;2.70;;
25962;SDS011;13760;52.588;13.406;2023-06-04T03:28:57;4.78;;;2.50;;
25962;SDS011;13760;52.588;13.406;2023-06-04T03:31:22;4.68;;;2.78;;
25962;SDS011;13760;52.588;13.406;2023-06-04T03:33:48;4.20;;;2.80;;
25962;SDS011;13760;52.588;13.406;2023-06-04T03:36:13;8.35;;;2.60;;
25962;SDS011;13760;52.588;13.406;2023-06-04T03:38:41;5.60;;;2.65;;
25962;SDS011;13760;52.588;13.406;2023-06-04T03:41:06;6.00;;;2.55;;
25962;SDS011;13760;52.588;13.406;2023-06-04T03:43:32;3.45;;;2.45;;
25962;SDS011;13760;52.588;13.406;2023-06-04T03:45:57;4.78;;;2.58;;
25962;SDS011;13760;52.588;13.406;2023-06-04T03:48:23;3.10;;;2.20;;
25962;SDS011;13760;52.588;13.406;2023-06-04T03:50:48;4.15;;;2.55;;
25962;SDS011;13760;52.588;13.406;2023-06-04T03:53:14;3.13;;;2.35;;
25962;SDS011;13760;52.588;13.406;2023-06-04T03:55:39;6.25;;;2.75;;
25962;SDS011;13760;52.588;13.406;2023-06-04T03:58:05;3.33;;;2.13;;
25962;SDS011;13760;52.588;13.406;2023-06-04T04:00:34;4.80;;;2.50;;
25962;SDS011;13760;52.588;13.406;2023-06-04T04:02:59;3.35;;;2.22;;
25962;SDS011;13760;52.588;13.406;2023-06-04T04:05:25;5.90;;;2.47;;
25962;SDS011;13760;52.588;13.406;2023-06-04T04:07:50;7.43;;;2.58;;
25962;SDS011;13760;52.588;13.406;2023-06-04T04:10:16;3.13;;;2.22;;
25962;SDS011;13760;52.588;13.406;2023-06-04T04:12:42;5.82;;;2.40;;
25962;SDS011;13760;52.588;13.406;2023-06-04T04:15:07;4.68;;;2.40;;
25962;SDS011;13760;52.588;13.406;2023-06-04T04:17:33;3.85;;;2.28;;
25962;SDS011;13760;52.588;13.406;2023-06-04T04:19:59;4.22;;;2.28;;
25962;SDS011;13760;52.588;13.406;2023-06-04T04:22:24;3.90;;;2.05;;
25962;SDS011;13760;52.588;13.406;2023-06-04T04:24:49;5.20;;;2.30;;
25962;SDS011;13760;52.588;13.406;2023-06-04T04:27:15;3.60;;;2.40;;
25962;SDS011;13760;52.588;13.406;2023-06-04T04:29:41;3.13;;;2.00;;
25962;SDS011;13760;52.588;13.406;2023-06-04T04:32:08;5.40;;;2.53;;
25962;SDS011;13760;52.588;13.406;2023-06-04T04:34:37;8.10;;;2.05;;
25962;SDS011;13760;52.588;13.406;2023-06-04T04:37:07;3.83;;;2.40;;
25962;SDS011;13760;52.588;13.406;2023-06-04T04:39:34;3.67;;;2.08;;
25962;SDS011;13760;52.588;13.406;2023-06-04T04:42:03;4.80;;;1.95;;
25962;SDS011;13760;52.588;13.406;2023-06-04T04:44:29;9.32;;;2.15;;
25962;SDS011;13760;52.588;13.406;2023-06-04T04:46:54;4.80;;;2.00;;
25962;SDS011;13760;52.588;13.406;2023-06-04T04:49:20;4.22;;;2.15;;
25962;SDS011;13760;52.588;13.406;2023-06-04T04:51:45;4.47;;;1.98;;
25962;SDS011;13760;52.588;13.406;2023-06-04T04:54:11;4.55;;;1.92;;
25962;SDS011;13760;52.588;13.406;2023-06-04T04:56:37;3.75;;;1.73;;
25962;SDS011;13760;52.588;13.406;2023-06-04T04:59:02;6.30;;;2.10;;
25962;SDS011;13760;52.588;13.406;2023-06-04T05:01:28;3.90;;;2.30;;
25962;SDS011;13760;52.588;13.406;2023-06-04T05:03:53;4.80;;;2.10;;
25962;SDS011;13760;52.588;13.406;2023-06-04T05:06:19;5.88;;;2.00;;
25962;SDS011;13760;52.588;13.406;2023-06-04T05:08:46;4.43;;;2.30;;
25962;SDS011;13760;52.588;13.406;2023-06-04T05:11:12;3.47;;;2.47;;
25962;SDS011;13760;52.588;13.406;2023-06-04T05:13:38;5.00;;;2.45;;
25962;SDS011;13760;52.588;13.406;2023-06-04T05:16:03;5.50;;;2.47;;
25962;SDS011;13760;52.588;13.406;2023-06-04T05:18:34;6.32;;;2.53;;
25962;SDS011;13760;52.588;13.406;2023-06-04T05:21:05;4.13;;;2.15;;
25962;SDS011;13760;52.588;13.406;2023-06-04T05:23:31;3.53;;;2.00;;
25962;SDS011;13760;52.588;13.406;2023-06-04T05:25:58;5.55;;;2.13;;
25962;SDS011;13760;52.588;13.406;2023-06-04T05:28:24;3.33;;;1.88;;
25962;SDS011;13760;52.588;13.406;2023-06-04T05:30:50;6.57;;;2.30;;
25962;SDS011;13760;52.588;13.406;2023-06-04T05:33:17;3.95;;;2.10;;
25962;SDS011;13760;52.588;13.406;2023-06-04T05:35:46;3.47;;;2.22;;
25962;SDS011;13760;52.588;13.406;2023-06-04T05:38:17;3.38;;;2.10;;
25962;SDS011;13760;52.588;13.406;2023-06-04T05:40:45;4.65;;;2.00;;
25962;SDS011;13760;52.588;13.406;2023-06-04T05:43:11;2.40;;;1.80;;
25962;SDS011;13760;52.588;13.406;2023-06-04T05:45:37;4.90;;;1.85;;
25962;SDS011;13760;52.588;13.406;2023-06-04T05:48:03;6.60;;;2.15;;
25962;SDS011;13760;52.588;13.406;2023-06-04T05:50:29;6.30;;;1.95;;
25962;SDS011;13760;52.588;13.406;2023-06-04T05:52:55;2.63;;;1.75;;
25962;SDS011;13760;52.588;13.406;2023-06-04T05:55:21;4.95;;;1.85;;
25962;SDS011;13760;52.588;13.406;2023-06-04T05:57:47;5.22;;;1.90;;
25962;SDS011;13760;52.588;13.406;2023-06-04T06:00:13;6.00;;;2.10;;
25962;SDS011;13760;52.588;13.406;2023-06-04T06:02:40;2.95;;;2.20;;
25962;SDS011;13760;52.588;13.406;2023-06-04T06:05:06;3.38;;;2.00;;
25962;SDS011;13760;52.588;13.406;2023-06-04T06:07:35;4.57;;;2.05;;
25962;SDS011;13760;52.588;13.406;2023-06-04T06:10:01;6.45;;;2.25;;
25962;SDS011;13760;52.588;13.406;2023-06-04T06:12:27;3.42;;;1.90;;
25962;SDS011;13760;52.588;13.406;2023-06-04T06:14:53;3.15;;;1.98;;
25962;SDS011;13760;52.588;13.406;2023-06-04T06:17:18;5.95;;;2.00;;
25962;SDS011;13760;52.588;13.406;2023-06-04T06:19:44;6.53;;;2.17;;
25962;SDS011;13760;52.588;13.406;2023-06-04T06:22:09;4.28;;;2.10;;
25962;SDS011;13760;52.588;13.406;2023-06-04T06:24:35;6.28;;;2.00;;
25962;SDS011;13760;52.588;13.406;2023-06-04T06:27:01;3.58;;;2.28;;
25962;SDS011;13760;52.588;13.406;2023-06-04T06:29:26;4.93;;;2.00;;
25962;SDS011;13760;52.588;13.406;2023-06-04T06:31:52;6.65;;;2.03;;
25962;SDS011;13760;52.588;13.406;2023-06-04T06:34:17;4.32;;;1.73;;
25962;SDS011;13760;52.588;13.406;2023-06-04T06:36:43;4.13;;;1.58;;
25962;SDS011;13760;52.588;13.406;2023-06-04T06:39:10;4.05;;;1.63;;
25962;SDS011;13760;52.588;13.406;2023-06-04T06:41:36;2.10;;;1.45;;
25962;SDS011;13760;52.588;13.406;2023-06-04T06:44:03;4.25;;;1.20;;
25962;SDS011;13760;52.588;13.406;2023-06-04T06:46:29;5.38;;;1.35;;
25962;SDS011;13760;52.588;13.406;2023-06-04T06:48:54;4.15;;;1.23;;
25962;SDS011;13760;52.588;13.406;2023-06-04T06:51:20;2.60;;;1.27;;
25962;SDS011;13760;52.588;13.406;2023-06-04T06:53:45;4.10;;;1.42;;
25962;SDS011;13760;52.588;13.406;2023-06-04T06:56:11;3.67;;;1.23;;
25962;SDS011;13760;52.588;13.406;2023-06-04T06:58:38;5.00;;;1.10;;
25962;SDS011;13760;52.588;13.406;2023-06-04T07:01:04;4.15;;;1.40;;
25962;SDS011;13760;52.588;13.406;2023-06-04T07:03:31;4.05;;;1.30;;
25962;SDS011;13760;52.588;13.406;2023-06-04T07:05:56;2.95;;;1.25;;
25962;SDS011;13760;52.588;13.406;2023-06-04T07:08:22;2.63;;;1.23;;
25962;SDS011;13760;52.588;13.406;2023-06-04T07:10:47;1.83;;;1.00;;
25962;SDS011;13760;52.588;13.406;2023-06-04T07:13:13;4.15;;;1.17;;
25962;SDS011;13760;52.588;13.406;2023-06-04T07:15:39;3.83;;;0.95;;
25962;SDS011;13760;52.588;13.406;2023-06-04T07:18:04;1.67;;;0.88;;
25962;SDS011;13760;52.588;13.406;2023-06-04T07:20:30;1.88;;;1.00;;
25962;SDS011;13760;52.588;13.406;2023-06-04T07:22:56;5.28;;;1.17;;
25962;SDS011;13760;52.588;13.406;2023-06-04T07:25:21;5.78;;;0.90;;
25962;SDS011;13760;52.588;13.406;2023-06-04T07:27:48;1.30;;;0.90;;
25962;SDS011;13760;52.588;13.406;2023-06-04T07:30:15;3.67;;;0.82;;
25962;SDS011;13760;52.588;13.406;2023-06-04T07:32:41;4.93;;;0.98;;
25962;SDS011;13760;52.588;13.406;2023-06-04T07:35:10;6.65;;;1.10;;
25962;SDS011;13760;52.588;13.406;2023-06-04T07:37:36;1.83;;;0.95;;
25962;SDS011;13760;52.588;13.406;2023-06-04T07:40:02;3.20;;;1.00;;
25962;SDS011;13760;52.588;13.406;2023-06-04T07:42:28;2.97;;;1.10;;
25962;SDS011;13760;52.588;13.406;2023-06-04T07:44:54;5.85;;;0.90;;
25962;SDS011;13760;52.588;13.406;2023-06-04T07:47:19;3.13;;;1.05;;
25962;SDS011;13760;52.588;13.406;2023-06-04T07:49:45;2.17;;;0.95;;
25962;SDS011;13760;52.588;13.406;2023-06-04T07:52:10;5.05;;;1.00;;
25962;SDS011;13760;52.588;13.406;2023-06-04T07:54:36;5.68;;;1.27;;
25962;SDS011;13760;52.588;13.406;2023-06-04T07:57:02;3.13;;;1.00;;
25962;SDS011;13760;52.588;13.406;2023-06-04T07:59:27;3.72;;;0.90;;
25962;SDS011;13760;52.588;13.406;2023-06-04T08:01:54;2.17;;;0.90;;
25962;SDS011;13760;52.588;13.406;2023-06-04T08:04:20;3.38;;;1.00;;
25962;SDS011;13760;52.588;13.406;2023-06-04T08:06:45;3.80;;;1.00;;
25962;SDS011;13760;52.588;13.406;2023-06-04T08:09:11;2.28;;;1.10;;
25962;SDS011;13760;52.588;13.406;2023-06-04T08:11:39;3.25;;;1.13;;
25962;SDS011;13760;52.588;13.406;2023-06-04T08:14:05;1.30;;;0.90;;
25962;SDS011;13760;52.588;13.406;2023-06-04T08:16:31;2.55;;;1.05;;
25962;SDS011;13760;52.588;13.406;2023-06-04T08:18:57;2.60;;;1.00;;
25962;SDS011;13760;52.588;13.406;2023-06-04T08:21:26;1.50;;;0.80;;
25962;SDS011;13760;52.588;13.406;2023-06-04T08:23:52;2.85;;;1.20;;
25962;SDS011;13760;52.588;13.406;2023-06-04T08:26:18;4.03;;;1.00;;
25962;SDS011;13760;52.588;13.406;2023-06-04T08:28:44;1.83;;;1.15;;
25962;SDS011;13760;52.588;13.406;2023-06-04T08:31:12;1.65;;;0.88;;
25962;SDS011;13760;52.588;13.406;2023-06-04T08:33:38;1.45;;;0.90;;
25962;SDS011;13760;52.588;13.406;2023-06-04T08:36:03;4.65;;;1.08;;
25962;SDS011;13760;52.588;13.406;2023-06-04T08:38:29;3.00;;;1.00;;
25962;SDS011;13760;52.588;13.406;2023-06-04T08:40:55;1.95;;;1.08;;
25962;SDS011;13760;52.588;13.406;2023-06-04T08:43:27;2.05;;;0.90;;
25962;SDS011;13760;52.588;13.406;2023-06-04T08:45:56;6.07;;;1.33;;
25962;SDS011;13760;52.588;13.406;2023-06-04T08:48:26;6.70;;;1.27;;
25962;SDS011;13760;52.588;13.406;2023-06-04T08:50:54;1.70;;;0.70;;
25962;SDS011;13760;52.588;13.406;2023-06-04T08:53:22;1.25;;;0.90;;
25962;SDS011;13760;52.588;13.406;2023-06-04T08:55:49;4.07;;;1.00;;
25962;SDS011;13760;52.588;13.406;2023-06-04T08:58:17;3.33;;;0.90;;
25962;SDS011;13760;52.588;13.406;2023-06-04T09:00:44;2.15;;;0.95;;
25962;SDS011;13760;52.588;13.406;2023-06-04T09:03:10;1.40;;;0.98;;
25962;SDS011;13760;52.588;13.406;2023-06-04T09:05:37;2.00;;;0.80;;
25962;SDS011;13760;52.588;13.406;2023-06-04T09:08:04;4.60;;;1.10;;
25962;SDS011;13760;52.588;13.406;2023-06-04T09:10:33;2.17;;;0.90;;
25962;SDS011;13760;52.588;13.406;2023-06-04T09:13:02;3.30;;;1.33;;
25962;SDS011;13760;52.588;13.406;2023-06-04T09:15:31;2.40;;;0.88;;
25962;SDS011;13760;52.588;13.406;2023-06-04T09:17:56;2.47;;;1.00;;
25962;SDS011;13760;52.588;13.406;2023-06-04T09:20:22;5.28;;;1.08;;
25962;SDS011;13760;52.588;13.406;2023-06-04T09:22:50;7.82;;;1.08;;
25962;SDS011;13760;52.588;13.406;2023-06-04T09:25:23;2.42;;;0.88;;
25962;SDS011;13760;52.588;13.406;2023-06-04T09:27:50;5.13;;;1.20;;
25962;SDS011;13760;52.588;13.406;2023-06-04T09:30:16;2.33;;;1.20;;
25962;SDS011;13760;52.588;13.406;2023-06-04T09:32:42;3.75;;;1.00;;
25962;SDS011;13760;52.588;13.406;2023-06-04T09:35:11;4.15;;;1.08;;
25962;SDS011;13760;52.588;13.406;2023-06-04T09:37:42;2.60;;;1.20;;
25962;SDS011;13760;52.588;13.406;2023-06-04T09:40:16;1.75;;;0.93;;
25962;SDS011;13760;52.588;13.406;2023-06-04T09:42:42;2.20;;;0.90;;
25962;SDS011;13760;52.588;13.406;2023-06-04T09:45:09;5.18;;;1.02;;
25962;SDS011;13760;52.588;13.406;2023-06-04T09:47:38;2.65;;;0.90;;
25962;SDS011;13760;52.588;13.406;2023-06-04T09:50:05;5.38;;;0.93;;
25962;SDS011;13760;52.588;13.406;2023-06-04T09:52:34;2.33;;;1.30;;
25962;SDS011;13760;52.588;13.406;2023-06-04T09:55:00;4.07;;;1.00;;
25962;SDS011;13760;52.588;13.406;2023-06-04T09:57:25;3.55;;;1.10;;
25962;SDS011;13760;52.588;13.406;2023-06-04T09:59:54;1.42;;;0.88;;
25962;SDS011;13760;52.588;13.406;2023-06-04T10:02:21;4.40;;;1.20;;
25962;SDS011;13760;52.588;13.406;2023-06-04T10:04:54;2.03;;;1.02;;
25962;SDS011;13760;52.588;13.406;2023-06-04T10:07:22;2.03;;;0.93;;
25962;SDS011;13760;52.588;13.406;2023-06-04T10:09:51;2.72;;;0.90;;
25962;SDS011;13760;52.588;13.406;2023-06-04T10:12:19;1.65;;;0.90;;
25962;SDS011;13760;52.588;13.406;2023-06-04T10:14:52;2.45;;;1.00;;
25962;SDS011;13760;52.588;13.406;2023-06-04T10:17:21;1.53;;;1.07;;
25962;SDS011;13760;52.588;13.406;2023-06-04T10:19:50;3.55;;;1.05;;
25962;SDS011;13760;52.588;13.406;2023-06-04T10:22:19;3.20;;;1.10;;
25962;SDS011;13760;52.588;13.406;2023-06-04T10:24:48;3.95;;;1.40;;
25962;SDS011;13760;52.588;13.406;2023-06-04T10:27:14;2.78;;;1.02;;
25962;SDS011;13760;52.588;13.406;2023-06-04T10:29:42;3.67;;;1.08;;
25962;SDS011;13760;52.588;13.406;2023-06-04T10:32:08;6.30;;;1.00;;
25962;SDS011;13760;52.588;13.406;2023-06-04T10:34:34;4.93;;;1.20;;
25962;SDS011;13760;52.588;13.406;2023-06-04T10:37:00;2.70;;;1.00;;
25962;SDS011;13760;52.588;13.406;2023-06-04T10:39:32;1.58;;;0.98;;
25962;SDS011;13760;52.588;13.406;2023-06-04T10:41:58;3.47;;;0.88;;
25962;SDS011;13760;52.588;13.406;2023-06-04T10:44:25;1.77;;;1.02;;
25962;SDS011;13760;52.588;13.406;2023-06-04T10:46:50;2.75;;;1.00;;
25962;SDS011;13760;52.588;13.406;2023-06-04T10:49:25;1.15;;;0.80;;
25962;SDS011;13760;52.588;13.406;2023-06-04T10:51:52;1.92;;;1.00;;
25962;SDS011;13760;52.588;13.406;2023-06-04T10:54:24;2.70;;;1.00;;
25962;SDS011;13760;52.588;13.406;2023-06-04T10:56:51;5.38;;;1.27;;
25962;SDS011;13760;52.588;13.406;2023-06-04T10:59:17;2.63;;;1.15;;
25962;SDS011;13760;52.588;13.406;2023-06-04T11:01:44;2.67;;;1.10;;
25962;SDS011;13760;52.588;13.406;2023-06-04T11:04:22;2.25;;;1.08;;
25962;SDS011;13760;52.588;13.406;2023-06-04T11:07:03;4.13;;;1.10;;
25962;SDS011;13760;52.588;13.406;2023-06-04T11:09:34;4.85;;;1.10;;
25962;SDS011;13760;52.588;13.406;2023-06-04T11:12:01;1.73;;;1.00;;
25962;SDS011;13760;52.588;13.406;2023-06-04T11:14:29;4.38;;;0.98;;
25962;SDS011;13760;52.588;13.406;2023-06-04T11:16:57;1.25;;;1.02;;
25962;SDS011;13760;52.588;13.406;2023-06-04T11:19:22;2.97;;;1.20;;
25962;SDS011;13760;52.588;13.406;2023-06-04T11:21:48;3.65;;;1.17;;
25962;SDS011;13760;52.588;13.406;2023-06-04T11:24:15;2.92;;;1.20;;
25962;SDS011;13760;52.588;13.406;2023-06-04T11:26:41;5.05;;;1.10;;
25962;SDS011;13760;52.588;13.406;2023-06-04T11:29:07;5.38;;;1.20;;
25962;SDS011;13760;52.588;13.406;2023-06-04T11:31:41;2.88;;;1.10;;
25962;SDS011;13760;52.588;13.406;2023-06-04T11:34:10;2.38;;;1.13;;
25962;SDS011;13760;52.588;13.406;2023-06-04T11:36:46;2.30;;;1.10;;
25962;SDS011;13760;52.588;13.406;2023-06-04T11:39:14;2.65;;;1.30;;
25962;SDS011;13760;52.588;13.406;2023-06-04T11:41:40;1.77;;;0.95;;
25962;SDS011;13760;52.588;13.406;2023-06-04T11:44:07;5.22;;;0.95;;
25962;SDS011;13760;52.588;13.406;2023-06-04T11:46:34;2.03;;;1.05;;
25962;SDS011;13760;52.588;13.406;2023-06-04T11:49:01;2.70;;;1.00;;
25962;SDS011;13760;52.588;13.406;2023-06-04T11:51:27;1.80;;;1.10;;
25962;SDS011;13760;52.588;13.406;2023-06-04T11:53:53;4.70;;;1.20;;
25962;SDS011;13760;52.588;13.406;2023-06-04T11:56:20;3.40;;;1.00;;
25962;SDS011;13760;52.588;13.406;2023-06-04T11:58:47;3.83;;;1.30;;
25962;SDS011;13760;52.588;13.406;2023-06-04T12:01:15;1.80;;;0.80;;
25962;SDS011;13760;52.588;13.406;2023-06-04T12:03:41;1.85;;;0.90;;
25962;SDS011;13760;52.588;13.406;2023-06-04T12:06:17;3.83;;;1.10;;
25962;SDS011;13760;52.588;13.406;2023-06-04T12:08:47;2.45;;;1.17;;
25962;SDS011;13760;52.588;13.406;2023-06-04T12:11:47;2.97;;;1.00;;
25962;SDS011;13760;52.588;13.406;2023-06-04T12:14:06;3.65;;;1.20;;
25962;SDS011;13760;52.588;13.406;2023-06-04T12:16:33;2.08;;;1.10;;
25962;SDS011;13760;52.588;13.406;2023-06-04T12:19:08;5.57;;;1.17;;
25962;SDS011;13760;52.588;13.406;2023-06-04T12:21:35;1.25;;;1.05;;
25962;SDS011;13760;52.588;13.406;2023-06-04T12:26:37;4.03;;;1.25;;
25962;SDS011;13760;52.588;13.406;2023-06-04T12:29:11;3.28;;;1.38;;
25962;SDS011;13760;52.588;13.406;2023-06-04T12:31:41;2.90;;;1.00;;
25962;SDS011;13760;52.588;13.406;2023-06-04T12:34:08;2.42;;;1.20;;
25962;SDS011;13760;52.588;13.406;2023-06-04T12:36:33;2.22;;;0.90;;
25962;SDS011;13760;52.588;13.406;2023-06-04T12:39:00;3.83;;;1.10;;
25962;SDS011;13760;52.588;13.406;2023-06-04T12:41:29;1.50;;;1.00;;
25962;SDS011;13760;52.588;13.406;2023-06-04T12:43:56;1.23;;;0.82;;
25962;SDS011;13760;52.588;13.406;2023-06-04T12:46:21;2.95;;;1.00;;
25962;SDS011;13760;52.588;13.406;2023-06-04T12:48:51;1.70;;;1.10;;
25962;SDS011;13760;52.588;13.406;2023-06-04T12:51:18;4.80;;;1.10;;
25962;SDS011;13760;52.588;13.406;2023-06-04T12:53:45;2.03;;;1.10;;
25962;SDS011;13760;52.588;13.406;2023-06-04T12:56:11;1.33;;;0.98;;
25962;SDS011;13760;52.588;13.406;2023-06-04T12:58:37;2.78;;;1.20;;
25962;SDS011;13760;52.588;13.406;2023-06-04T13:01:03;5.32;;;1.30;;
25962;SDS011;13760;52.588;13.406;2023-06-04T13:03:32;2.83;;;1.10;;
25962;SDS011;13760;52.588;13.406;2023-06-04T13:05:58;2.13;;;1.23;;
25962;SDS011;13760;52.588;13.406;2023-06-04T13:08:24;2.40;;;1.00;;
25962;SDS011;13760;52.588;13.406;2023-06-04T13:10:50;1.90;;;1.30;;
25962;SDS011;13760;52.588;13.406;2023-06-04T13:13:17;3.28;;;1.20;;
25962;SDS011;13760;52.588;13.406;2023-06-04T13:15:42;2.58;;;1.10;;
25962;SDS011;13760;52.588;13.406;2023-06-04T13:18:08;3.00;;;1.40;;
25962;SDS011;13760;52.588;13.406;2023-06-04T13:20:35;2.83;;;1.20;;
25962;SDS011;13760;52.588;13.406;2023-06-04T13:23:01;3.20;;;1.10;;
25962;SDS011;13760;52.588;13.406;2023-06-04T13:25:26;3.97;;;1.15;;
25962;SDS011;13760;52.588;13.406;2023-06-04T13:27:53;1.98;;;1.13;;
25962;SDS011;13760;52.588;13.406;2023-06-04T13:30:19;1.27;;;1.02;;
25962;SDS011;13760;52.588;13.406;2023-06-04T13:32:45;2.20;;;0.90;;
25962;SDS011;13760;52.588;13.406;2023-06-04T13:35:11;4.50;;;1.25;;
25962;SDS011;13760;52.588;13.406;2023-06-04T13:37:36;3.85;;;1.00;;
25962;SDS011;13760;52.588;13.406;2023-06-04T13:40:02;3.30;;;1.30;;
25962;SDS011;13760;52.588;13.406;2023-06-04T13:42:28;3.50;;;1.20;;
25962;SDS011;13760;52.588;13.406;2023-06-04T13:44:53;2.88;;;1.00;;
25962;SDS011;13760;52.588;13.406;2023-06-04T13:47:19;2.85;;;1.30;;
25962;SDS011;13760;52.588;13.406;2023-06-04T13:49:45;3.95;;;1.40;;
25962;SDS011;13760;52.588;13.406;2023-06-04T13:52:11;2.50;;;1.48;;
25962;SDS011;13760;52.588;13.406;2023-06-04T13:54:36;2.50;;;1.30;;
25962;SDS011;13760;52.588;13.406;2023-06-04T13:57:02;3.28;;;1.27;;
25962;SDS011;13760;52.588;13.406;2023-06-04T13:59:31;2.67;;;1.00;;
25962;SDS011;13760;52.588;13.406;2023-06-04T14:01:57;3.03;;;1.10;;
25962;SDS011;13760;52.588;13.406;2023-06-04T14:04:23;2.75;;;0.98;;
25962;SDS011;13760;52.588;13.406;2023-06-04T14:06:48;3.13;;;1.27;;
25962;SDS011;13760;52.588;13.406;2023-06-04T14:09:14;2.72;;;1.17;;
25962;SDS011;13760;52.588;13.406;2023-06-04T14:11:40;4.63;;;1.63;;
25962;SDS011;13760;52.588;13.406;2023-06-04T14:14:06;4.40;;;1.23;;
25962;SDS011;13760;52.588;13.406;2023-06-04T14:16:32;3.40;;;1.23;;
25962;SDS011;13760;52.588;13.406;2023-06-04T14:18:58;2.75;;;1.10;;
25962;SDS011;13760;52.588;13.406;2023-06-04T14:21:24;4.60;;;1.10;;
25962;SDS011;13760;52.588;13.406;2023-06-04T14:23:51;3.53;;;1.45;;
25962;SDS011;13760;52.588;13.406;2023-06-04T14:26:17;2.83;;;1.15;;
25962;SDS011;13760;52.588;13.406;2023-06-04T14:28:43;4.05;;;1.30;;
25962;SDS011;13760;52.588;13.406;2023-06-04T14:31:09;2.72;;;1.23;;
25962;SDS011;13760;52.588;13.406;2023-06-04T14:33:35;2.35;;;1.23;;